Time;durP1;ratioP1;P1;durP2;ratioP2;P2;SDS_P1;SDS_P2;PMS_P1;PMS_P2;Temp;Humidity;BMP_temperature;BMP_pressure;BME280_temperature;BME280_humidity;BME280_pressure;Samples;Min_cycle;Max_cycle;Signal;HPM_P1;HPM_P2
2022/11/02 00:00:46;;;;;;;4.82;4.07;;;;;;;7.39;100.00;96445.66;5028388;28;24809;-70
2022/11/02 00:03:13;;;;;;;6.00;3.85;;;;;;;7.30;100.00;96445.16;5025251;28;24439;-70
2022/11/02 00:05:39;;;;;;;7.30;4.20;;;;;;;7.25;100.00;96453.06;5029807;28;25004;-69
2022/11/02 00:08:06;;;;;;;5.15;4.15;;;;;;;7.20;100.00;96442.94;5025937;28;24443;-69
2022/11/02 00:10:34;;;;;;;7.93;4.20;;;;;;;7.20;100.00;96437.81;5025212;28;24438;-69
2022/11/02 00:13:00;;;;;;;5.47;3.17;;;;;;;7.13;100.00;96445.81;5022614;28;21143;-69
2022/11/02 00:15:30;;;;;;;6.57;3.22;;;;;;;6.95;100.00;96440.47;5027930;28;20784;-70
2022/11/02 00:18:01;;;;;;;3.70;2.78;;;;;;;6.83;100.00;96445.25;5029790;28;20822;-69
2022/11/02 00:20:28;;;;;;;3.63;2.03;;;;;;;6.71;100.00;96442.22;5022689;28;21149;-69
2022/11/02 00:22:57;;;;;;;2.90;2.13;;;;;;;6.72;100.00;96445.66;5018482;28;24439;-69
2022/11/02 00:25:26;;;;;;;3.47;2.33;;;;;;;6.57;100.00;96441.91;5027631;28;21137;-70
2022/11/02 00:27:53;;;;;;;4.47;2.20;;;;;;;6.67;100.00;96442.38;5029933;28;24442;-69
2022/11/02 00:30:20;;;;;;;3.88;2.10;;;;;;;6.70;100.00;96443.09;5027214;28;24438;-69
2022/11/02 00:32:47;;;;;;;2.17;1.73;;;;;;;6.77;100.00;96451.44;5017816;28;24893;-68
2022/11/02 00:35:13;;;;;;;4.13;2.35;;;;;;;6.86;100.00;96453.69;5024482;28;24443;-68
2022/11/02 00:37:40;;;;;;;3.15;2.40;;;;;;;6.72;100.00;96461.91;5030389;28;24431;-68
2022/11/02 00:40:07;;;;;;;4.00;2.42;;;;;;;6.66;100.00;96467.28;5028764;28;24802;-69
2022/11/02 00:42:34;;;;;;;2.83;2.00;;;;;;;6.67;100.00;96462.97;5021228;28;20774;-68
2022/11/02 00:45:02;;;;;;;4.25;2.70;;;;;;;6.79;100.00;96462.53;5026930;28;24434;-68
2022/11/02 00:47:28;;;;;;;5.65;2.53;;;;;;;6.66;100.00;96467.28;5028479;28;24552;-68
2022/11/02 00:49:55;;;;;;;5.55;3.35;;;;;;;6.55;100.00;96470.25;5030614;28;24447;-68
2022/11/02 00:52:22;;;;;;;5.88;3.72;;;;;;;6.59;100.00;96467.56;5021653;28;24439;-68
2022/11/02 00:54:48;;;;;;;6.45;3.50;;;;;;;6.58;100.00;96473.63;5024854;28;21118;-69
2022/11/02 00:57:15;;;;;;;6.80;3.00;;;;;;;6.58;100.00;96468.47;5026733;28;24442;-69
2022/11/02 00:59:41;;;;;;;4.57;2.65;;;;;;;6.51;100.00;96478.97;5027503;28;25016;-69
2022/11/02 01:02:09;;;;;;;5.65;2.97;;;;;;;6.56;100.00;96478.78;5025886;28;20781;-69
2022/11/02 01:04:35;;;;;;;6.18;3.83;;;;;;;6.61;100.00;96474.34;5027488;28;20818;-69
2022/11/02 01:07:02;;;;;;;5.13;3.30;;;;;;;6.66;100.00;96477.59;5018548;28;24994;-69
2022/11/02 01:09:29;;;;;;;5.07;3.15;;;;;;;6.80;100.00;96466.78;5028983;28;24447;-69
2022/11/02 01:11:56;;;;;;;5.05;2.70;;;;;;;6.83;100.00;96466.69;5029469;28;24501;-69
2022/11/02 01:14:23;;;;;;;4.15;2.42;;;;;;;6.77;100.00;96461.75;5018080;28;20836;-69
2022/11/02 01:16:49;;;;;;;4.47;2.47;;;;;;;6.79;100.00;96457.41;5022877;28;24440;-70
2022/11/02 01:19:17;;;;;;;5.78;2.35;;;;;;;6.96;100.00;96459.31;5025694;28;24446;-69
2022/11/02 01:21:44;;;;;;;5.35;2.58;;;;;;;7.08;100.00;96460.59;5026871;28;21485;-70
2022/11/02 01:24:11;;;;;;;6.43;2.67;;;;;;;6.93;100.00;96457.69;5025797;28;20851;-69
2022/11/02 01:26:37;;;;;;;9.75;2.22;;;;;;;6.93;100.00;96456.88;5019076;28;20770;-69
2022/11/02 01:29:04;;;;;;;7.45;2.47;;;;;;;6.95;100.00;96455.09;5021806;28;24440;-69
2022/11/02 01:31:30;;;;;;;5.18;2.42;;;;;;;6.87;100.00;96445.06;5020915;28;24440;-69
2022/11/02 01:33:57;;;;;;;5.30;3.30;;;;;;;6.93;100.00;96451.72;5019631;28;24463;-69
2022/11/02 01:36:25;;;;;;;9.85;4.38;;;;;;;7.02;100.00;96451.38;5020413;28;24433;-69
2022/11/02 01:38:53;;;;;;;5.20;3.20;;;;;;;6.97;100.00;96451.56;5024864;28;24452;-69
2022/11/02 01:41:20;;;;;;;7.43;3.22;;;;;;;6.91;100.00;96445.78;5013827;28;21304;-69
2022/11/02 01:43:49;;;;;;;2.72;2.35;;;;;;;6.74;100.00;96439.53;5021890;28;24431;-68
2022/11/02 01:46:20;;;;;;;3.92;2.40;;;;;;;6.74;100.00;96436.94;5019023;28;20811;-68
2022/11/02 01:48:49;;;;;;;3.60;2.60;;;;;;;6.72;100.00;96425.88;5019791;28;20836;-68
2022/11/02 01:51:21;;;;;;;3.22;2.20;;;;;;;6.60;100.00;96428.91;5021675;28;24440;-69
2022/11/02 01:53:53;;;;;;;2.87;2.23;;;;;;;6.50;100.00;96427.56;5010176;28;20851;-68
2022/11/02 01:56:24;;;;;;;3.10;2.20;;;;;;;6.55;100.00;96423.91;5019802;28;24982;-69
2022/11/02 01:58:56;;;;;;;2.47;2.20;;;;;;;6.71;100.00;96423.34;5027756;28;24435;-68
2022/11/02 02:01:23;;;;;;;5.60;2.33;;;;;;;6.62;100.00;96415.97;5021471;28;21406;-69
2022/11/02 02:03:51;;;;;;;2.90;2.20;;;;;;;6.62;100.00;96419.38;5016822;28;24432;-68
2022/11/02 02:06:18;;;;;;;2.92;2.38;;;;;;;6.67;100.00;96408.91;5018886;28;24961;-69
2022/11/02 02:08:48;;;;;;;5.90;2.80;;;;;;;6.74;100.00;96406.06;5024210;28;24439;-69
2022/11/02 02:11:37;;;;;;;5.93;3.23;;;;;;;6.73;100.00;96406.13;5019077;28;24456;-69
2022/11/02 02:14:07;;;;;;;4.85;2.67;;;;;;;6.70;100.00;96416.53;5015023;28;24448;-68
2022/11/02 02:16:53;;;;;;;5.70;2.17;;;;;;;6.71;100.00;96413.91;5020696;28;24434;-68
2022/11/02 02:19:32;;;;;;;6.97;2.83;;;;;;;6.72;100.00;96405.28;5025877;28;20807;-68
2022/11/02 02:22:19;;;;;;;4.55;2.17;;;;;;;6.77;100.00;96403.38;5015569;28;24443;-69
2022/11/02 02:24:52;;;;;;;5.13;2.60;;;;;;;6.87;100.00;96403.88;5016647;28;20782;-68
2022/11/02 02:27:27;;;;;;;4.07;2.30;;;;;;;6.91;100.00;96408.00;5028251;28;20908;-68
2022/11/02 02:30:04;;;;;;;5.43;3.03;;;;;;;6.80;100.00;96397.28;5026491;28;24432;-68
2022/11/02 02:32:38;;;;;;;3.38;2.10;;;;;;;6.64;100.00;96402.16;5026209;28;20756;-68
2022/11/02 02:35:13;;;;;;;4.73;1.93;;;;;;;6.64;100.00;96396.19;5026628;28;25019;-68
2022/11/02 02:37:46;;;;;;;6.67;3.73;;;;;;;6.74;100.00;96397.50;5029135;28;20826;-68
2022/11/02 02:40:17;;;;;;;5.20;1.90;;;;;;;6.60;100.00;96389.44;5024284;28;20818;-68
2022/11/02 02:42:51;;;;;;;4.65;1.70;;;;;;;6.40;100.00;96393.59;5026804;28;20683;-68
2022/11/02 02:45:26;;;;;;;8.32;2.30;;;;;;;6.24;100.00;96384.78;5031157;28;21262;-69
2022/11/02 02:47:59;;;;;;;7.63;1.98;;;;;;;6.26;100.00;96390.69;5027104;28;24439;-68
2022/11/02 02:50:29;;;;;;;5.47;2.20;;;;;;;6.28;100.00;96383.75;5016813;28;20934;-69
2022/11/02 02:53:01;;;;;;;6.60;2.08;;;;;;;6.20;100.00;96388.34;5031876;28;20791;-68
2022/11/02 02:55:32;;;;;;;3.50;1.95;;;;;;;6.07;100.00;96387.91;5032469;28;24439;-69
2022/11/02 02:58:02;;;;;;;4.95;1.90;;;;;;;6.05;100.00;96388.00;5017812;28;21331;-69
2022/11/02 03:00:33;;;;;;;5.85;1.98;;;;;;;6.11;100.00;96394.63;5021597;28;20782;-69
2022/11/02 03:03:00;;;;;;;4.07;2.05;;;;;;;6.14;100.00;96384.25;5016611;28;24432;-68
2022/11/02 03:05:30;;;;;;;3.78;1.50;;;;;;;6.20;100.00;96390.91;5023525;28;24443;-68
2022/11/02 03:08:03;;;;;;;6.60;2.25;;;;;;;6.33;100.00;96381.84;5032089;28;24436;-68
2022/11/02 03:10:34;;;;;;;4.00;2.10;;;;;;;6.53;100.00;96383.72;5024754;28;25021;-68
2022/11/02 03:13:11;;;;;;;5.32;2.50;;;;;;;6.63;100.00;96384.19;5022708;28;24791;-68
2022/11/02 03:15:42;;;;;;;4.43;2.10;;;;;;;6.81;100.00;96393.78;5031744;28;20757;-69
2022/11/02 03:18:17;;;;;;;5.13;1.63;;;;;;;6.95;100.00;96386.38;5023575;28;24522;-69
2022/11/02 03:20:56;;;;;;;3.70;1.58;;;;;;;7.07;100.00;96387.66;5019927;28;24506;-69
2022/11/02 03:23:30;;;;;;;3.83;1.70;;;;;;;7.16;100.00;96391.63;5021804;28;21057;-68
2022/11/02 03:26:04;;;;;;;3.13;1.88;;;;;;;7.18;100.00;96387.22;5015076;28;24443;-69
2022/11/02 03:28:43;;;;;;;3.45;1.58;;;;;;;7.18;100.00;96392.38;5020599;28;20735;-69
2022/11/02 03:31:17;;;;;;;4.13;1.80;;;;;;;7.19;100.00;96396.63;5023772;28;21121;-68
2022/11/02 03:33:50;;;;;;;5.00;1.67;;;;;;;7.17;100.00;96404.44;5023333;28;24451;-69
2022/11/02 03:36:21;;;;;;;4.90;1.88;;;;;;;7.11;100.00;96401.25;5020869;28;20753;-68
2022/11/02 03:38:51;;;;;;;4.32;1.90;;;;;;;7.04;100.00;96408.38;5022470;28;20739;-68
2022/11/02 03:41:20;;;;;;;4.05;1.90;;;;;;;7.05;100.00;96401.50;5020097;28;20694;-69
2022/11/02 03:43:51;;;;;;;4.95;2.00;;;;;;;7.04;100.00;96405.78;5022090;28;20769;-68
2022/11/02 03:46:21;;;;;;;3.22;1.73;;;;;;;7.01;100.00;96405.94;5027777;28;20817;-68
2022/11/02 03:48:50;;;;;;;3.70;1.70;;;;;;;7.03;100.00;96414.41;5027361;28;20781;-68
2022/11/02 03:51:21;;;;;;;3.03;1.70;;;;;;;6.99;100.00;96412.88;5024626;28;20830;-68
2022/11/02 03:53:52;;;;;;;3.05;1.65;;;;;;;6.96;100.00;96425.84;5027620;28;20787;-69
2022/11/02 03:56:24;;;;;;;6.03;1.70;;;;;;;6.96;100.00;96428.44;5027655;28;21347;-69
2022/11/02 03:58:51;;;;;;;7.63;1.90;;;;;;;7.05;100.00;96429.84;5024928;28;20696;-68
2022/11/02 04:01:20;;;;;;;5.13;1.85;;;;;;;7.11;100.00;96419.28;5029928;28;20777;-68
2022/11/02 04:03:47;;;;;;;7.28;1.98;;;;;;;7.11;100.00;96427.00;5027795;28;20793;-69
2022/11/02 04:06:14;;;;;;;5.38;2.10;;;;;;;7.14;100.00;96424.31;5022078;28;24969;-69
2022/11/02 04:08:43;;;;;;;4.13;2.00;;;;;;;7.13;100.00;96425.22;5023648;28;25164;-69
2022/11/02 04:16:40;;;;;;;4.77;1.90;;;;;;;7.02;100.00;96417.91;5019076;28;24538;-69
2022/11/02 04:27:20;;;;;;;8.88;1.90;;;;;;;6.82;100.00;96430.69;5023913;28;24439;-69
2022/11/02 04:29:46;;;;;;;5.15;1.80;;;;;;;6.97;100.00;96430.09;5022095;28;24444;-69
2022/11/02 04:33:31;;;;;;;4.78;2.10;;;;;;;6.72;100.00;96428.47;5022952;28;24454;-69
2022/11/02 04:35:00;;;;;;;3.83;1.67;;;;;;;6.70;100.00;96430.25;5019173;28;20809;-68
2022/11/02 04:40:07;;;;;;;7.17;1.80;;;;;;;6.68;100.00;96434.63;4995154;28;20853;-69
2022/11/02 04:42:34;;;;;;;4.68;1.83;;;;;;;6.72;100.00;96430.19;5025673;28;25064;-69
2022/11/02 04:45:00;;;;;;;4.45;2.00;;;;;;;6.51;100.00;96439.53;5018998;28;24428;-69
2022/11/02 04:47:28;;;;;;;4.45;1.75;;;;;;;6.60;100.00;96431.50;5019699;28;21318;-69
2022/11/02 04:49:55;;;;;;;5.32;1.83;;;;;;;6.60;100.00;96443.50;5022091;28;20833;-67
2022/11/02 04:52:21;;;;;;;8.32;1.77;;;;;;;6.70;100.00;96442.28;5022170;28;24787;-68
2022/11/02 04:54:48;;;;;;;5.35;1.75;;;;;;;6.79;100.00;96440.22;5025589;28;20789;-69
2022/11/02 04:57:14;;;;;;;3.88;1.60;;;;;;;6.85;100.00;96438.28;5027110;28;21326;-69
2022/11/02 04:59:41;;;;;;;3.55;1.60;;;;;;;6.90;100.00;96438.97;5022208;28;24448;-69
2022/11/02 05:02:07;;;;;;;5.13;1.92;;;;;;;6.96;100.00;96442.13;5025593;28;24455;-69
2022/11/02 05:04:35;;;;;;;6.47;1.80;;;;;;;7.08;100.00;96440.81;5024938;28;24459;-70
2022/11/02 05:07:05;;;;;;;5.33;1.93;;;;;;;7.06;100.00;96450.38;5027836;28;24440;-71
2022/11/02 05:09:31;;;;;;;4.25;1.70;;;;;;;7.08;100.00;96452.88;5022826;28;20818;-70
2022/11/02 05:11:58;;;;;;;4.07;1.58;;;;;;;7.03;100.00;96446.16;5025623;28;24802;-70
2022/11/02 05:14:24;;;;;;;4.15;1.65;;;;;;;6.90;100.00;96452.69;5029374;28;24818;-70
2022/11/02 05:16:51;;;;;;;13.15;2.42;;;;;;;6.87;100.00;96459.69;5017773;28;24436;-70
2022/11/02 05:19:17;;;;;;;5.07;2.45;;;;;;;6.85;100.00;96458.88;5027977;28;24448;-70
2022/11/02 05:21:45;;;;;;;8.40;2.00;;;;;;;6.68;100.00;96467.25;5028637;28;24454;-70
2022/11/02 05:24:12;;;;;;;3.72;1.85;;;;;;;6.62;100.00;96464.88;5028978;28;24439;-70
2022/11/02 05:26:38;;;;;;;6.38;1.70;;;;;;;6.50;100.00;96467.00;5022791;28;24442;-70
2022/11/02 05:29:05;;;;;;;6.45;1.92;;;;;;;6.49;100.00;96457.63;5026316;28;24446;-70
2022/11/02 05:31:32;;;;;;;6.40;2.00;;;;;;;6.59;100.00;96465.00;5027960;28;20780;-70
2022/11/02 05:33:58;;;;;;;6.63;2.05;;;;;;;6.59;100.00;96472.72;5024811;28;24466;-70
2022/11/02 05:36:25;;;;;;;4.20;1.70;;;;;;;6.55;100.00;96466.84;5023781;28;25004;-70
2022/11/02 05:38:53;;;;;;;5.80;1.85;;;;;;;6.66;100.00;96479.31;5027219;28;24443;-70
2022/11/02 05:41:20;;;;;;;4.00;1.70;;;;;;;6.77;100.00;96462.59;5022208;28;20814;-70
2022/11/02 05:43:47;;;;;;;4.53;1.70;;;;;;;6.85;100.00;96464.88;5027070;28;24802;-70
2022/11/02 05:46:13;;;;;;;3.63;1.67;;;;;;;6.93;100.00;96474.88;5019674;28;24435;-70
2022/11/02 05:48:40;;;;;;;5.43;1.92;;;;;;;6.99;100.00;96461.78;5020541;28;24443;-70
2022/11/02 05:51:09;;;;;;;6.33;1.90;;;;;;;7.02;100.00;96472.81;5026290;28;20780;-71
2022/11/02 05:53:37;;;;;;;6.45;1.80;;;;;;;6.95;100.00;96483.41;5028334;28;21135;-70
2022/11/02 05:56:07;;;;;;;4.90;1.40;;;;;;;6.94;100.00;96477.44;5027577;28;21254;-70
2022/11/02 05:58:34;;;;;;;6.10;1.40;;;;;;;7.03;100.00;96482.22;5025736;28;24862;-70
2022/11/02 06:01:01;;;;;;;8.27;3.08;;;;;;;7.02;100.00;96487.44;5020326;28;24429;-70
2022/11/02 06:03:28;;;;;;;4.93;1.80;;;;;;;6.95;100.00;96483.41;5024429;28;24875;-70
2022/11/02 06:05:57;;;;;;;7.10;2.10;;;;;;;6.90;100.00;96491.31;5018136;28;24433;-73
2022/11/02 06:08:24;;;;;;;7.07;2.00;;;;;;;6.97;100.00;96485.03;5020393;28;26064;-69
2022/11/02 06:10:50;;;;;;;4.72;1.55;;;;;;;6.98;100.00;96499.59;5021838;28;24436;-70
2022/11/02 06:13:18;;;;;;;5.55;2.20;;;;;;;6.96;100.00;96500.53;5024179;28;24968;-69
2022/11/02 06:15:45;;;;;;;4.25;1.50;;;;;;;7.01;100.00;96514.09;5025575;28;24451;-69
2022/11/02 06:18:11;;;;;;;6.10;2.10;;;;;;;7.02;100.00;96514.03;5032173;28;24515;-70
2022/11/02 06:20:38;;;;;;;7.90;1.98;;;;;;;7.08;100.00;96515.53;5034397;28;24435;-69
2022/11/02 06:23:04;;;;;;;4.97;3.08;;;;;;;7.11;100.00;96517.16;5032379;28;25008;-69
2022/11/02 06:25:31;;;;;;;5.32;1.95;;;;;;;7.08;100.00;96520.69;5028019;28;24428;-70
2022/11/02 06:27:58;;;;;;;4.95;2.45;;;;;;;7.17;100.00;96522.09;5033352;28;24455;-70
2022/11/02 06:30:26;;;;;;;7.22;2.30;;;;;;;7.25;100.00;96526.06;5023952;28;24443;-69
2022/11/02 06:32:54;;;;;;;6.43;2.20;;;;;;;7.27;100.00;96534.56;5028739;28;20837;-69
2022/11/02 06:35:22;;;;;;;7.00;2.00;;;;;;;7.24;100.00;96536.44;5020956;28;20763;-69
2022/11/02 06:37:48;;;;;;;5.47;2.08;;;;;;;7.34;100.00;96542.91;5006648;28;24997;-69
2022/11/02 06:40:15;;;;;;;6.85;1.90;;;;;;;7.48;100.00;96543.22;5012981;28;24807;-68
2022/11/02 06:42:42;;;;;;;3.20;1.75;;;;;;;7.61;100.00;96545.34;5006291;28;21314;-69
2022/11/02 06:45:09;;;;;;;4.97;1.98;;;;;;;7.69;100.00;96544.13;5013290;28;21121;-70
2022/11/02 06:47:37;;;;;;;3.67;1.60;;;;;;;7.69;100.00;96551.88;5014152;28;20823;-69
2022/11/02 06:50:05;;;;;;;6.75;1.73;;;;;;;7.79;100.00;96548.91;5010657;28;24442;-70
2022/11/02 06:52:31;;;;;;;4.93;1.88;;;;;;;7.88;100.00;96536.50;5014432;28;20820;-70
2022/11/02 06:54:58;;;;;;;2.85;1.50;;;;;;;7.96;100.00;96546.53;5012730;28;24463;-70
2022/11/02 06:57:24;;;;;;;5.28;2.03;;;;;;;8.07;100.00;96551.25;5012729;28;25016;-70
2022/11/02 06:59:51;;;;;;;4.80;2.15;;;;;;;8.11;100.00;96558.78;5013193;28;24447;-70
2022/11/02 07:02:20;;;;;;;5.95;2.20;;;;;;;8.10;100.00;96558.88;5003517;28;24436;-69
2022/11/02 07:04:48;;;;;;;5.60;2.00;;;;;;;8.10;100.00;96566.63;5009619;28;20824;-69
2022/11/02 07:07:15;;;;;;;6.10;1.90;;;;;;;8.18;100.00;96567.13;5012912;28;21194;-69
2022/11/02 07:09:41;;;;;;;4.68;1.60;;;;;;;8.24;100.00;96577.22;5010033;28;20793;-69
2022/11/02 07:12:08;;;;;;;6.43;1.73;;;;;;;8.29;100.00;96577.84;5008679;28;20783;-69
2022/11/02 07:14:34;;;;;;;4.50;1.88;;;;;;;8.33;100.00;96581.16;5012510;28;24459;-71
2022/11/02 07:17:01;;;;;;;10.55;2.72;;;;;;;8.33;100.00;96587.16;5001309;28;20783;-69
2022/11/02 07:19:27;;;;;;;5.38;2.13;;;;;;;8.42;100.00;96589.41;5012531;28;25021;-69
2022/11/02 07:21:55;;;;;;;5.97;2.35;;;;;;;8.51;100.00;96592.50;5014009;28;24443;-69
2022/11/02 07:24:22;;;;;;;7.72;2.20;;;;;;;8.48;100.00;96599.47;5008971;28;20812;-69
2022/11/02 07:26:49;;;;;;;6.75;2.63;;;;;;;8.61;100.00;96598.97;5012293;28;24432;-69
2022/11/02 07:29:16;;;;;;;13.45;2.50;;;;;;;8.70;100.00;96603.75;5003834;28;20837;-69
2022/11/02 07:31:43;;;;;;;5.88;2.58;;;;;;;8.94;100.00;96607.88;5003981;28;20779;-70
2022/11/02 07:34:09;;;;;;;5.63;2.30;;;;;;;9.01;100.00;96610.16;5006945;28;20782;-70
2022/11/02 07:36:36;;;;;;;9.85;2.78;;;;;;;9.04;100.00;96607.47;5008270;28;21340;-69
2022/11/02 07:39:04;;;;;;;11.95;2.47;;;;;;;9.02;100.00;96606.72;5009016;28;24441;-70
2022/11/02 07:41:30;;;;;;;10.20;2.40;;;;;;;9.03;100.00;96613.53;5004600;28;24956;-70
2022/11/02 07:43:57;;;;;;;5.43;2.17;;;;;;;9.03;100.00;96610.97;5005429;28;25004;-70
2022/11/02 07:46:23;;;;;;;9.02;2.28;;;;;;;9.05;100.00;96611.72;5010375;28;24439;-70
2022/11/02 07:48:50;;;;;;;8.55;2.38;;;;;;;9.07;100.00;96610.75;5008767;28;24444;-70
2022/11/02 07:51:17;;;;;;;13.02;2.35;;;;;;;9.10;100.00;96610.63;5004699;28;24448;-69
2022/11/02 07:53:44;;;;;;;7.30;2.00;;;;;;;9.07;100.00;96613.34;5008424;28;20806;-69
2022/11/02 07:56:12;;;;;;;8.87;2.23;;;;;;;9.06;100.00;96616.00;5008566;28;20786;-69
2022/11/02 07:58:38;;;;;;;7.57;2.28;;;;;;;9.05;100.00;96619.47;5003725;28;21337;-70
2022/11/02 08:01:05;;;;;;;7.75;2.22;;;;;;;9.07;100.00;96618.50;5002935;28;24432;-69
2022/11/02 08:03:31;;;;;;;5.68;1.98;;;;;;;9.26;100.00;96623.72;5008966;28;20774;-69
2022/11/02 08:06:01;;;;;;;7.07;2.15;;;;;;;9.29;100.00;96623.59;5006937;28;24444;-69
2022/11/02 08:08:28;;;;;;;6.43;1.90;;;;;;;9.36;100.00;96630.16;4999739;28;20872;-69
2022/11/02 08:10:55;;;;;;;6.85;2.08;;;;;;;9.41;100.00;96640.28;5004628;28;24432;-70
2022/11/02 08:13:24;;;;;;;6.20;1.95;;;;;;;9.44;100.00;96638.41;5006412;28;24447;-70
2022/11/02 08:15:52;;;;;;;6.00;2.08;;;;;;;9.49;100.00;96637.38;5005618;28;24543;-70
2022/11/02 08:18:21;;;;;;;8.90;2.40;;;;;;;9.58;100.00;96635.22;5007872;28;24447;-70
2022/11/02 08:20:48;;;;;;;4.80;2.28;;;;;;;9.62;100.00;96636.75;5005435;28;20819;-70
2022/11/02 08:23:16;;;;;;;5.57;1.98;;;;;;;9.56;100.00;96633.59;5008451;28;24432;-70
2022/11/02 08:25:45;;;;;;;7.55;2.17;;;;;;;9.61;100.00;96639.41;5001751;28;20776;-70
2022/11/02 08:28:14;;;;;;;6.25;2.20;;;;;;;9.66;100.00;96638.28;5006099;28;24432;-70
2022/11/02 08:30:41;;;;;;;6.63;2.23;;;;;;;9.77;100.00;96645.56;4999164;28;24429;-70
2022/11/02 08:33:12;;;;;;;8.85;2.10;;;;;;;9.89;100.00;96636.41;5005921;28;24432;-70
2022/11/02 08:35:39;;;;;;;7.50;2.30;;;;;;;10.01;100.00;96633.25;5006030;28;20784;-70
2022/11/02 08:38:06;;;;;;;8.63;2.10;;;;;;;10.02;100.00;96644.44;5008181;28;20786;-69
2022/11/02 08:40:33;;;;;;;6.32;1.85;;;;;;;10.13;100.00;96637.84;4998653;28;24433;-72
2022/11/02 08:43:02;;;;;;;7.43;1.90;;;;;;;10.22;100.00;96641.75;5006316;28;24559;-73
2022/11/02 08:45:30;;;;;;;7.45;2.17;;;;;;;10.41;100.00;96636.56;5002481;28;24436;-70
2022/11/02 08:47:58;;;;;;;5.78;1.80;;;;;;;10.50;100.00;96633.53;5005153;28;24440;-69
2022/11/02 08:50:26;;;;;;;10.93;2.20;;;;;;;10.58;100.00;96634.00;5007655;28;24437;-69
2022/11/02 08:52:53;;;;;;;6.95;1.90;;;;;;;10.73;100.00;96640.19;4998744;28;24991;-70
2022/11/02 08:55:19;;;;;;;8.40;2.20;;;;;;;10.73;100.00;96640.19;4998592;28;24459;-70
2022/11/02 08:57:47;;;;;;;9.40;2.40;;;;;;;10.70;100.00;96642.06;5005837;28;24436;-70
2022/11/02 09:00:14;;;;;;;9.90;4.88;;;;;;;10.70;100.00;96645.50;5007886;28;24441;-70
2022/11/02 09:02:41;;;;;;;12.40;3.72;;;;;;;10.65;100.00;96642.31;5008302;28;24432;-71
2022/11/02 09:05:09;;;;;;;9.32;3.38;;;;;;;10.68;100.00;96641.31;5008199;28;24432;-69
2022/11/02 09:07:36;;;;;;;9.00;2.10;;;;;;;10.71;100.00;96638.56;5007902;28;24436;-69
2022/11/02 09:10:03;;;;;;;5.50;1.90;;;;;;;10.73;100.00;96640.19;5005796;28;24466;-70
2022/11/02 09:12:29;;;;;;;4.82;1.75;;;;;;;10.73;100.00;96641.94;5006501;28;24443;-70
2022/11/02 09:14:56;;;;;;;8.50;2.50;;;;;;;10.73;100.00;96647.94;5006852;28;24432;-69
2022/11/02 09:17:22;;;;;;;7.40;2.00;;;;;;;10.74;100.00;96647.03;5009203;28;24992;-69
2022/11/02 09:19:49;;;;;;;15.98;3.13;;;;;;;10.69;100.00;96643.84;5007005;28;24436;-69
2022/11/02 09:22:16;;;;;;;5.07;2.00;;;;;;;10.74;100.00;96633.25;4999680;28;24436;-70
2022/11/02 09:24:43;;;;;;;7.43;2.10;;;;;;;10.73;100.00;96635.00;5004372;28;24432;-69
2022/11/02 09:27:09;;;;;;;7.65;1.90;;;;;;;10.82;100.00;96642.28;5008677;28;24431;-70
2022/11/02 09:29:36;;;;;;;6.40;1.90;;;;;;;10.92;100.00;96645.28;5003359;28;24489;-70
2022/11/02 09:32:02;;;;;;;9.85;1.85;;;;;;;10.99;100.00;96649.25;5009095;28;24439;-69
2022/11/02 09:34:29;;;;;;;4.87;1.80;;;;;;;11.08;100.00;96643.56;5006423;28;24452;-70
2022/11/02 09:36:55;;;;;;;9.80;2.20;;;;;;;11.14;100.00;96650.22;5004883;28;24460;-69
2022/11/02 09:39:23;;;;;;;5.95;2.10;;;;;;;11.21;100.00;96651.59;5003011;28;24428;-70
2022/11/02 09:42:03;;;;;;;9.97;2.23;;;;;;;11.26;100.00;96646.16;5009158;28;24523;-70
2022/11/02 09:44:42;;;;;;;6.27;1.63;;;;;;;11.27;100.00;96647.81;5003028;28;24791;-70
2022/11/02 09:47:11;;;;;;;6.10;1.98;;;;;;;11.31;100.00;96655.38;5007512;28;24995;-69
2022/11/02 09:49:39;;;;;;;7.33;1.80;;;;;;;11.36;100.00;96655.97;5004323;28;24527;-70
2022/11/02 09:52:09;;;;;;;6.97;2.40;;;;;;;11.40;100.00;96659.25;5008399;28;24438;-70
2022/11/02 09:54:42;;;;;;;5.10;2.03;;;;;;;11.51;100.00;96654.34;5004530;28;24443;-70
2022/11/02 09:57:14;;;;;;;7.82;2.35;;;;;;;11.56;100.00;96664.47;5008255;28;24502;-70
2022/11/02 09:59:41;;;;;;;11.40;2.08;;;;;;;11.48;100.00;96651.91;5005390;28;24444;-70
2022/11/02 10:02:22;;;;;;;8.60;2.07;;;;;;;11.54;100.00;96658.53;5007988;28;25280;-70
2022/11/02 10:05:18;;;;;;;10.52;2.13;;;;;;;11.56;100.00;96656.69;5007046;28;24436;-70
2022/11/02 10:08:04;;;;;;;7.93;2.35;;;;;;;11.61;100.00;96657.31;5000106;28;24440;-69
2022/11/02 10:10:37;;;;;;;6.17;1.90;;;;;;;11.60;100.00;96650.41;5000488;28;24730;-70
2022/11/02 10:13:18;;;;;;;5.85;2.17;;;;;;;11.68;100.00;96648.28;5005424;28;24432;-70
2022/11/02 10:15:48;;;;;;;5.65;1.98;;;;;;;11.72;100.00;96642.00;5007849;28;24459;-70
2022/11/02 10:18:20;;;;;;;7.13;2.30;;;;;;;11.70;100.00;96643.81;5003798;28;24444;-70
2022/11/02 10:20:51;;;;;;;10.43;2.03;;;;;;;11.72;100.00;96648.94;5002554;28;25005;-69
2022/11/02 10:23:25;;;;;;;7.82;1.90;;;;;;;11.75;100.00;96639.22;5000937;28;24448;-70
2022/11/02 10:25:53;;;;;;;8.90;2.00;;;;;;;11.78;100.00;96644.25;5008709;28;24435;-70
2022/11/02 10:28:25;;;;;;;8.02;1.83;;;;;;;11.82;100.00;96647.50;5006334;28;24437;-70
2022/11/02 10:30:53;;;;;;;6.15;2.30;;;;;;;11.80;100.00;96647.63;5000317;28;24440;-70
2022/11/02 10:33:25;;;;;;;9.65;2.15;;;;;;;11.85;100.00;96652.59;5006323;28;24428;-70
2022/11/02 10:36:09;;;;;;;10.43;2.15;;;;;;;11.85;100.00;96647.38;5003419;28;24449;-69
2022/11/02 10:38:44;;;;;;;7.72;1.98;;;;;;;11.94;100.00;96656.44;5001995;28;24447;-69
2022/11/02 10:41:27;;;;;;;11.93;2.28;;;;;;;12.01;100.00;96658.59;5008175;28;24990;-70
2022/11/02 10:44:12;;;;;;;6.73;2.10;;;;;;;12.03;100.00;96658.53;5006676;28;24456;-70
2022/11/02 10:46:49;;;;;;;7.60;2.47;;;;;;;12.07;100.00;96649.66;5003332;28;24985;-70
2022/11/02 10:49:29;;;;;;;6.35;2.03;;;;;;;12.01;100.00;96650.81;5006388;28;24838;-68
2022/11/02 10:51:56;;;;;;;8.50;2.45;;;;;;;12.01;100.00;96648.22;5003393;28;24790;-70
2022/11/02 10:54:22;;;;;;;6.28;2.00;;;;;;;12.01;100.00;96649.97;5006077;28;25002;-70
2022/11/02 10:56:50;;;;;;;13.90;2.38;;;;;;;12.11;100.00;96648.56;5007248;28;24906;-70
2022/11/02 10:59:19;;;;;;;6.60;1.83;;;;;;;12.05;100.00;96643.69;5006385;28;24448;-69
2022/11/02 11:01:47;;;;;;;7.97;1.83;;;;;;;12.12;100.00;96642.44;5006693;28;24483;-69
2022/11/02 11:04:22;;;;;;;9.77;2.42;;;;;;;12.02;100.00;96639.53;5010284;28;24555;-69
2022/11/02 11:06:48;;;;;;;9.63;2.47;;;;;;;12.17;98.67;96637.03;5004851;28;24440;-69
2022/11/02 11:09:18;;;;;;;7.57;2.42;;;;;;;12.20;98.35;96648.09;5007876;28;25020;-69
2022/11/02 11:11:55;;;;;;;6.30;1.98;;;;;;;12.13;98.61;96643.31;5005318;28;24491;-70
2022/11/02 11:14:23;;;;;;;9.70;2.05;;;;;;;12.06;98.50;96641.03;5007922;28;24440;-69
2022/11/02 11:16:52;;;;;;;9.77;2.28;;;;;;;12.23;98.83;96644.44;5011262;28;25041;-69
2022/11/02 11:19:23;;;;;;;5.53;2.03;;;;;;;12.27;96.61;96644.22;4997897;28;24437;-69
2022/11/02 11:21:50;;;;;;;9.80;2.15;;;;;;;12.31;96.55;96644.84;5002481;28;24461;-69
2022/11/02 11:24:26;;;;;;;16.15;2.20;;;;;;;12.38;94.78;96632.38;5004192;28;24451;-69
2022/11/02 11:27:14;;;;;;;5.43;2.22;;;;;;;12.48;96.28;96638.72;5000195;28;24433;-73
2022/11/02 11:29:45;;;;;;;5.30;1.90;;;;;;;12.50;93.73;96642.09;5002482;28;24447;-70
2022/11/02 11:32:16;;;;;;;10.35;2.33;;;;;;;12.56;96.49;96644.31;5005796;28;24433;-71
2022/11/02 11:34:46;;;;;;;8.70;2.30;;;;;;;12.51;94.77;96642.00;5002033;28;24437;-71
2022/11/02 11:37:15;;;;;;;10.35;2.25;;;;;;;12.52;92.91;96635.88;5001780;28;24563;-68
2022/11/02 11:39:45;;;;;;;6.82;2.40;;;;;;;12.52;90.13;96637.63;5005529;28;24444;-69
2022/11/02 11:42:19;;;;;;;8.55;1.80;;;;;;;12.60;91.78;96623.25;5009060;28;24799;-70
2022/11/02 11:44:53;;;;;;;6.85;2.22;;;;;;;12.73;91.14;96628.63;5010935;28;24436;-69
2022/11/02 11:47:26;;;;;;;6.78;2.17;;;;;;;12.77;86.81;96624.91;5004428;28;25004;-69
2022/11/02 11:49:54;;;;;;;9.18;2.00;;;;;;;12.79;89.08;96623.06;5000681;28;24507;-70
2022/11/02 11:52:25;;;;;;;9.05;2.90;;;;;;;12.90;88.16;96621.59;5007582;28;24510;-71
2022/11/02 11:54:53;;;;;;;7.57;2.15;;;;;;;13.02;89.86;96623.50;5010479;28;24982;-70
2022/11/02 11:57:28;;;;;;;5.80;1.83;;;;;;;13.00;89.21;96617.53;5009008;28;24453;-70